createdAt,value
2019-03-28T00:01:27.278Z,8.73
2019-03-28T00:03:58.893Z,8.66
2019-03-28T00:06:30.314Z,8.72
2019-03-28T00:09:01.747Z,8.63
2019-03-28T00:11:35.165Z,8.74
2019-03-28T00:14:06.622Z,8.72
2019-03-28T00:16:38.292Z,8.64
2019-03-28T00:19:09.811Z,8.72
2019-03-28T00:21:41.246Z,8.78
2019-03-28T00:24:20.438Z,8.75
2019-03-28T00:26:51.983Z,8.81
2019-03-28T00:29:23.504Z,8.70
2019-03-28T00:31:54.909Z,8.81
2019-03-28T00:34:26.321Z,8.84
2019-03-28T00:36:57.713Z,8.86
2019-03-28T00:39:29.469Z,8.85
2019-03-28T00:42:00.978Z,8.72
2019-03-28T00:44:32.399Z,8.73
2019-03-28T00:47:05.128Z,8.71
2019-03-28T00:49:36.624Z,8.54
2019-03-28T00:52:08.437Z,8.46
2019-03-28T00:54:40.136Z,8.51
2019-03-28T00:57:11.523Z,8.57
2019-03-28T00:59:43.031Z,8.63
2019-03-28T01:02:14.795Z,8.55
2019-03-28T01:04:46.235Z,8.46
2019-03-28T01:07:19.960Z,8.59
2019-03-28T01:09:51.588Z,8.51
2019-03-28T01:12:22.972Z,8.47
2019-03-28T01:14:55.426Z,8.47
2019-03-28T01:17:27.310Z,8.50
2019-03-28T01:19:58.903Z,8.56
2019-03-28T01:22:31.057Z,8.60
2019-03-28T01:25:02.586Z,8.57
2019-03-28T01:27:33.993Z,8.70
2019-03-28T01:30:06.381Z,8.58
2019-03-28T01:32:37.846Z,8.54
2019-03-28T01:35:09.419Z,8.57
2019-03-28T01:37:40.924Z,8.49
2019-03-28T01:40:12.455Z,8.38
2019-03-28T01:42:43.956Z,8.49
2019-03-28T01:45:15.404Z,8.52
2019-03-28T01:47:47.080Z,8.52
2019-03-28T01:50:18.587Z,8.49
2019-03-28T01:52:51.097Z,8.55
2019-03-28T01:55:22.818Z,8.48
2019-03-28T01:57:54.536Z,8.49
2019-03-28T02:00:25.921Z,8.49
2019-03-28T02:02:57.291Z,8.41
2019-03-28T02:05:29.350Z,8.43
2019-03-28T02:08:02.715Z,8.53
2019-03-28T02:10:34.241Z,8.53
2019-03-28T02:13:05.654Z,8.49
2019-03-28T02:15:38.041Z,8.47
2019-03-28T02:18:09.508Z,8.43
2019-03-28T02:20:41.186Z,8.42
2019-03-28T02:23:13.044Z,8.38
2019-03-28T02:25:44.872Z,8.55
2019-03-28T02:28:16.757Z,8.53
2019-03-28T02:30:48.279Z,8.48
2019-03-28T02:33:19.711Z,8.45
2019-03-28T02:35:51.519Z,8.45
2019-03-28T02:38:23.648Z,8.45
2019-03-28T02:40:55.555Z,8.48
2019-03-28T02:43:27.435Z,8.44
2019-03-28T02:45:59.171Z,8.48
2019-03-28T02:48:32.648Z,8.48
2019-03-28T02:51:04.205Z,8.52
2019-03-28T02:53:35.635Z,8.55
2019-03-28T02:56:07.231Z,8.52
2019-03-28T02:58:38.620Z,8.43
2019-03-28T03:01:10.004Z,8.50
2019-03-28T03:03:41.502Z,8.48
2019-03-28T03:06:13.203Z,8.48
2019-03-28T03:08:44.841Z,8.43
2019-03-28T03:11:16.284Z,8.41
2019-03-28T03:13:47.672Z,8.33
2019-03-28T03:16:19.127Z,8.47
2019-03-28T03:18:50.521Z,8.41
2019-03-28T03:21:22.262Z,8.35
2019-03-28T03:23:54.123Z,8.42
2019-03-28T03:26:25.679Z,8.43
2019-03-28T03:28:58.561Z,8.44
2019-03-28T03:31:32.443Z,8.40
2019-03-28T03:34:05.334Z,8.36
2019-03-28T03:36:38.681Z,8.33
2019-03-28T03:39:10.907Z,8.37
2019-03-28T03:41:42.637Z,8.41
2019-03-28T03:44:14.054Z,8.43
2019-03-28T03:46:45.965Z,8.43
2019-03-28T03:49:18.304Z,8.36
2019-03-28T03:51:49.822Z,8.32
2019-03-28T03:54:22.004Z,8.34
2019-03-28T03:56:53.602Z,8.32
2019-03-28T03:59:25.220Z,8.32
2019-03-28T04:01:56.891Z,8.33
2019-03-28T04:04:28.844Z,8.34
2019-03-28T04:07:00.690Z,8.32
2019-03-28T04:09:33.509Z,8.36
2019-03-28T04:12:04.857Z,8.26
2019-03-28T04:14:36.237Z,8.22
2019-03-28T04:17:07.970Z,8.18
2019-03-28T04:19:39.912Z,8.26
2019-03-28T04:22:11.300Z,8.20
2019-03-28T04:24:42.710Z,8.24
2019-03-28T04:27:14.360Z,8.19
2019-03-28T04:29:45.753Z,8.21
2019-03-28T04:32:17.392Z,8.23
2019-03-28T04:34:48.842Z,8.21
2019-03-28T04:37:20.908Z,8.20
2019-03-28T04:39:52.299Z,8.17
2019-03-28T04:42:23.957Z,8.26
2019-03-28T04:44:55.913Z,8.26
2019-03-28T04:47:27.773Z,8.12
2019-03-28T04:49:59.306Z,8.12
2019-03-28T04:52:32.016Z,8.16
2019-03-28T04:55:03.849Z,8.20
2019-03-28T04:57:35.601Z,8.10
2019-03-28T05:00:07.795Z,8.14
2019-03-28T05:02:39.547Z,8.19
2019-03-28T05:05:11.009Z,8.28
2019-03-28T05:07:42.463Z,8.32
2019-03-28T05:10:15.316Z,8.25
2019-03-28T05:12:47.470Z,8.16
2019-03-28T05:15:20.363Z,8.13
2019-03-28T05:17:52.166Z,8.24
2019-03-28T05:20:24.159Z,8.16
2019-03-28T05:22:55.551Z,8.19
2019-03-28T05:25:26.929Z,8.24
2019-03-28T05:27:59.328Z,8.15
2019-03-28T05:30:31.727Z,8.16
2019-03-28T05:33:03.409Z,8.16
2019-03-28T05:35:35.007Z,8.14
2019-03-28T05:38:06.431Z,8.17
2019-03-28T05:40:38.102Z,8.12
2019-03-28T05:43:09.824Z,8.24
2019-03-28T05:45:41.488Z,8.09
2019-03-28T05:48:13.130Z,8.13
2019-03-28T05:50:45.033Z,8.10
2019-03-28T05:53:16.982Z,8.19
2019-03-28T05:55:48.478Z,8.16
2019-03-28T05:58:21.753Z,8.22
2019-03-28T06:00:57.792Z,8.24
2019-03-28T06:03:29.725Z,8.33
2019-03-28T06:06:01.088Z,8.22
2019-03-28T06:08:32.975Z,8.32
2019-03-28T06:11:06.355Z,8.41
2019-03-28T06:13:38.062Z,8.35
2019-03-28T06:16:09.453Z,8.46
2019-03-28T06:18:41.098Z,8.41
2019-03-28T06:21:12.470Z,8.53
2019-03-28T06:23:44.390Z,8.40
2019-03-28T06:26:15.874Z,8.47
2019-03-28T06:28:47.707Z,8.42
2019-03-28T06:31:19.406Z,8.52
2019-03-28T06:33:51.608Z,8.49
2019-03-28T06:36:23.412Z,8.50
2019-03-28T06:38:55.137Z,8.61
2019-03-28T06:41:28.143Z,8.74
2019-03-28T06:43:59.794Z,8.78
2019-03-28T06:46:31.536Z,8.83
2019-03-28T06:49:03.668Z,8.88
2019-03-28T06:51:36.493Z,8.61
2019-03-28T06:54:08.263Z,8.83
2019-03-28T06:56:39.859Z,8.86
2019-03-28T06:59:11.720Z,8.84
2019-03-28T07:01:44.717Z,8.95
2019-03-28T07:04:16.625Z,8.89
2019-03-28T07:06:48.004Z,9.02
2019-03-28T07:09:19.375Z,8.96
2019-03-28T07:11:51.483Z,9.15
2019-03-28T07:14:22.856Z,8.86
2019-03-28T07:16:54.659Z,8.89
2019-03-28T07:19:26.285Z,8.89
2019-03-28T07:21:57.960Z,9.09
2019-03-28T07:24:29.937Z,9.18
2019-03-28T07:27:01.430Z,9.16
2019-03-28T07:29:33.078Z,9.15
2019-03-28T07:32:06.360Z,9.22
2019-03-28T07:34:38.078Z,9.20
2019-03-28T07:37:09.448Z,9.29
2019-03-28T07:39:41.364Z,9.54
2019-03-28T07:42:13.072Z,9.63
2019-03-28T07:44:44.684Z,9.43
2019-03-28T07:47:16.378Z,10.11
2019-03-28T07:49:48.009Z,10.33
2019-03-28T07:52:20.164Z,9.80
2019-03-28T07:54:51.882Z,9.67
2019-03-28T07:57:23.274Z,9.97
2019-03-28T08:00:04.023Z,9.79
2019-03-28T08:02:27.706Z,9.80
2019-03-28T08:05:01.557Z,10.11
2019-03-28T08:07:44.385Z,10.10
2019-03-28T08:10:08.179Z,10.47
2019-03-28T08:12:40.030Z,10.32
2019-03-28T08:15:12.294Z,10.46
2019-03-28T08:17:44.012Z,10.50
2019-03-28T08:20:15.762Z,10.48
2019-03-28T08:22:47.281Z,10.45
2019-03-28T08:25:18.771Z,10.46
2019-03-28T08:27:50.676Z,10.55
2019-03-28T08:30:36.489Z,10.34
2019-03-28T08:33:08.263Z,10.39
2019-03-28T08:35:39.818Z,10.57
2019-03-28T08:38:11.228Z,10.73
2019-03-28T08:40:44.822Z,10.81
2019-03-28T08:43:16.996Z,10.98
2019-03-28T08:45:48.381Z,10.65
2019-03-28T08:48:19.786Z,10.88
2019-03-28T08:50:51.198Z,11.09
2019-03-28T08:53:22.562Z,11.26
2019-03-28T08:55:56.290Z,11.43
2019-03-28T08:58:27.613Z,12.15
2019-03-28T09:00:59.295Z,11.73
2019-03-28T09:03:30.930Z,12.52
2019-03-28T09:06:02.919Z,12.89
2019-03-28T09:08:34.312Z,12.81
2019-03-28T09:11:06.047Z,11.72
2019-03-28T09:13:38.433Z,12.32
2019-03-28T09:16:10.197Z,12.61
2019-03-28T09:18:42.193Z,12.92
2019-03-28T09:21:13.919Z,13.21
2019-03-28T09:23:45.298Z,13.12
2019-03-28T09:26:16.674Z,13.74
2019-03-28T09:28:48.084Z,12.74
2019-03-28T09:31:22.269Z,13.66
2019-03-28T09:33:54.134Z,12.66
2019-03-28T09:36:26.310Z,12.49
2019-03-28T09:38:58.141Z,12.69
2019-03-28T09:41:30.519Z,12.67
2019-03-28T09:44:02.182Z,12.81
2019-03-28T09:46:33.556Z,12.47
2019-03-28T09:49:05.030Z,12.48
2019-03-28T09:51:36.414Z,12.72
2019-03-28T09:54:07.796Z,13.42
2019-03-28T09:56:39.440Z,13.03
2019-03-28T09:59:10.829Z,12.84
2019-03-28T10:01:42.731Z,12.32
2019-03-28T10:04:14.589Z,12.37
2019-03-28T10:06:46.008Z,12.62
2019-03-28T10:09:17.718Z,12.49
2019-03-28T10:11:49.153Z,12.55
2019-03-28T10:14:20.527Z,12.10
2019-03-28T10:16:52.230Z,12.28
2019-03-28T10:19:23.614Z,12.11
2019-03-28T10:21:55.545Z,12.01
2019-03-28T10:24:26.918Z,11.88
2019-03-28T10:26:58.431Z,11.71
2019-03-28T10:29:30.385Z,11.94
2019-03-28T10:32:01.879Z,13.55
2019-03-28T10:34:33.615Z,13.55
2019-03-28T10:37:05.077Z,13.14
2019-03-28T10:39:36.766Z,12.91
2019-03-28T10:42:09.158Z,12.63
2019-03-28T10:44:41.067Z,12.74
2019-03-28T10:47:12.550Z,12.40
2019-03-28T10:49:44.479Z,13.27
2019-03-28T10:52:16.437Z,12.48
2019-03-28T10:54:48.273Z,13.05
2019-03-28T10:57:29.725Z,13.88
2019-03-28T10:59:52.768Z,13.65
2019-03-28T11:02:24.662Z,12.76
2019-03-28T11:04:56.361Z,13.55
2019-03-28T11:07:27.770Z,14.01
2019-03-28T11:09:59.355Z,14.20
2019-03-28T11:12:31.093Z,13.75
2019-03-28T11:15:02.471Z,13.62
2019-03-28T11:17:34.652Z,14.43
2019-03-28T11:20:07.117Z,14.21
2019-03-28T11:22:38.485Z,14.49
2019-03-28T11:25:10.081Z,14.74
2019-03-28T11:27:41.602Z,14.34
2019-03-28T11:30:13.423Z,14.85
2019-03-28T11:32:45.371Z,14.28
2019-03-28T11:35:16.974Z,15.01
2019-03-28T11:37:48.591Z,14.73
2019-03-28T11:40:20.448Z,14.28
2019-03-28T11:42:52.323Z,13.73
2019-03-28T11:45:26.854Z,13.79
2019-03-28T11:47:56.816Z,13.64
2019-03-28T11:50:28.664Z,14.26
2019-03-28T11:53:00.169Z,13.89
2019-03-28T11:55:31.588Z,13.63
2019-03-28T11:58:03.531Z,13.91
2019-03-28T12:00:34.931Z,13.50
2019-03-28T12:03:06.872Z,13.37
2019-03-28T12:05:38.253Z,13.40
2019-03-28T12:08:10.216Z,13.27
2019-03-28T12:10:42.164Z,13.14
2019-03-28T12:13:13.624Z,13.00
2019-03-28T12:15:45.265Z,13.06
2019-03-28T12:18:16.884Z,13.04
2019-03-28T12:20:48.470Z,13.00
2019-03-28T12:23:20.143Z,12.80
2019-03-28T12:25:51.860Z,13.15
2019-03-28T12:28:24.196Z,12.95
2019-03-28T12:30:56.093Z,13.19
2019-03-28T12:33:28.435Z,13.15
2019-03-28T12:35:59.804Z,13.24
2019-03-28T12:38:31.505Z,13.05
2019-03-28T12:41:02.930Z,13.12
2019-03-28T12:43:35.132Z,13.21
2019-03-28T12:46:06.522Z,13.97
2019-03-28T12:48:38.160Z,13.99
2019-03-28T12:51:10.128Z,14.05
2019-03-28T12:53:41.991Z,13.89
2019-03-28T12:56:13.724Z,13.59
2019-03-28T12:58:45.873Z,13.65
2019-03-28T13:01:17.521Z,13.93
2019-03-28T13:03:49.107Z,14.42
2019-03-28T13:06:20.784Z,13.96
2019-03-28T13:08:52.097Z,14.03
2019-03-28T13:11:23.964Z,14.01
2019-03-28T13:13:55.702Z,13.81
2019-03-28T13:16:27.305Z,13.78
2019-03-28T13:19:00.241Z,13.51
2019-03-28T13:21:32.116Z,13.33
2019-03-28T13:24:03.496Z,13.19
2019-03-28T13:26:34.989Z,13.16
2019-03-28T13:29:06.422Z,13.09
2019-03-28T13:31:38.183Z,13.22
2019-03-28T13:34:10.500Z,13.29
2019-03-28T13:36:42.976Z,13.26
2019-03-28T13:39:14.734Z,13.20
2019-03-28T13:41:46.398Z,12.90
2019-03-28T13:44:17.856Z,12.90
2019-03-28T13:46:50.215Z,13.08
2019-03-28T13:49:21.866Z,13.06
2019-03-28T13:51:56.294Z,13.28
2019-03-28T13:54:28.070Z,13.18
2019-03-28T13:57:00.115Z,13.06
2019-03-28T13:59:35.307Z,13.06
2019-03-28T14:02:07.638Z,13.33
2019-03-28T14:04:39.098Z,13.21
2019-03-28T14:07:11.122Z,13.27
2019-03-28T14:09:44.649Z,13.11
2019-03-28T14:12:16.347Z,13.04
2019-03-28T14:14:47.823Z,13.00
2019-03-28T14:17:19.710Z,13.12
2019-03-28T14:19:51.243Z,13.16
2019-03-28T14:22:23.849Z,13.15
2019-03-28T14:24:55.498Z,13.26
2019-03-28T14:27:27.386Z,13.28
2019-03-28T14:29:58.802Z,13.28
2019-03-28T14:32:33.097Z,13.29
2019-03-28T14:35:04.259Z,13.41
2019-03-28T14:37:35.727Z,13.43
2019-03-28T14:40:08.217Z,13.20
2019-03-28T14:42:40.808Z,13.23
2019-03-28T14:45:12.572Z,13.26
2019-03-28T14:47:44.594Z,13.31
2019-03-28T14:50:18.466Z,13.33
2019-03-28T14:52:50.166Z,13.48
2019-03-28T14:55:22.293Z,13.38
2019-03-28T14:57:53.765Z,13.24
2019-03-28T15:00:46.776Z,13.26
2019-03-28T15:03:26.203Z,13.19
2019-03-28T15:05:52.975Z,13.18
2019-03-28T15:08:24.369Z,13.14
2019-03-28T15:10:55.773Z,13.16
2019-03-28T15:13:27.515Z,13.16
2019-03-28T15:15:59.278Z,13.15
2019-03-28T15:18:31.213Z,13.18
2019-03-28T15:21:02.611Z,13.20
2019-03-28T15:23:34.045Z,13.24
2019-03-28T15:26:06.139Z,13.11
2019-03-28T15:28:37.555Z,13.17
2019-03-28T15:31:08.951Z,13.26
2019-03-28T15:33:40.726Z,13.36
2019-03-28T15:36:12.181Z,13.14
2019-03-28T15:38:43.914Z,13.11
2019-03-28T15:41:16.062Z,12.92
2019-03-28T15:43:47.924Z,13.01
2019-03-28T15:46:20.081Z,12.96
2019-03-28T15:48:51.728Z,12.94
2019-03-28T15:51:23.696Z,13.00
2019-03-28T15:53:55.903Z,12.85
2019-03-28T15:56:27.291Z,12.76
2019-03-28T15:58:59.216Z,12.81
2019-03-28T16:01:30.786Z,12.82
2019-03-28T16:04:02.833Z,12.82
2019-03-28T16:06:34.217Z,12.95
2019-03-28T16:09:07.498Z,12.83
2019-03-28T16:11:39.126Z,12.81
2019-03-28T16:14:11.050Z,12.80
2019-03-28T16:16:42.475Z,12.83
2019-03-28T16:19:14.210Z,12.74
2019-03-28T16:21:46.639Z,12.66
2019-03-28T16:24:18.065Z,12.62
2019-03-28T16:26:49.971Z,12.69
2019-03-28T16:29:21.358Z,12.64
2019-03-28T16:31:53.055Z,12.73
2019-03-28T16:34:24.459Z,12.76
2019-03-28T16:36:56.138Z,12.61
2019-03-28T16:39:28.208Z,12.55
2019-03-28T16:41:59.947Z,12.65
2019-03-28T16:44:31.438Z,12.59
2019-03-28T16:47:02.865Z,12.65
2019-03-28T16:49:34.671Z,12.72
2019-03-28T16:52:06.707Z,12.72
2019-03-28T16:54:38.094Z,12.68
2019-03-28T16:57:09.488Z,12.62
2019-03-28T16:59:43.140Z,12.69
2019-03-28T17:02:14.562Z,12.73
2019-03-28T17:04:46.349Z,12.63
2019-03-28T17:07:18.195Z,12.55
2019-03-28T17:09:50.455Z,12.50
2019-03-28T17:12:21.921Z,12.45
2019-03-28T17:14:53.912Z,12.34
2019-03-28T17:17:25.601Z,12.36
2019-03-28T17:19:57.121Z,12.48
2019-03-28T17:22:28.523Z,12.55
2019-03-28T17:25:00.054Z,12.51
2019-03-28T17:27:32.277Z,12.57
2019-03-28T17:30:07.362Z,12.47
2019-03-28T17:32:39.123Z,12.43
2019-03-28T17:35:12.976Z,12.39
2019-03-28T17:37:44.981Z,12.37
2019-03-28T17:40:19.751Z,12.28
2019-03-28T17:42:51.144Z,12.31
2019-03-28T17:45:22.547Z,12.32
2019-03-28T17:47:54.418Z,12.39
2019-03-28T17:50:25.860Z,12.30
2019-03-28T17:52:57.273Z,12.19
2019-03-28T17:55:29.767Z,12.28
2019-03-28T17:58:01.686Z,12.33
2019-03-28T18:00:33.445Z,12.28
2019-03-28T18:03:09.542Z,12.33
2019-03-28T18:05:40.676Z,12.09
2019-03-28T18:08:11.982Z,12.23
2019-03-28T18:10:43.715Z,12.23
2019-03-28T18:13:15.082Z,12.08
2019-03-28T18:15:46.889Z,12.10
2019-03-28T18:18:18.558Z,12.26
2019-03-28T18:20:50.336Z,12.35
2019-03-28T18:23:21.705Z,12.25
2019-03-28T18:25:53.962Z,12.13
2019-03-28T18:28:25.913Z,12.10
2019-03-28T18:30:57.375Z,12.15
2019-03-28T18:33:29.841Z,12.25
2019-03-28T18:36:01.839Z,12.32
2019-03-28T18:38:33.540Z,12.22
2019-03-28T18:41:05.185Z,12.11
2019-03-28T18:43:36.587Z,12.22
2019-03-28T18:46:09.677Z,12.19
2019-03-28T18:48:41.776Z,12.24
2019-03-28T18:51:13.381Z,12.24
2019-03-28T18:53:45.451Z,12.20
2019-03-28T18:56:17.141Z,12.27
2019-03-28T18:58:49.011Z,12.14
2019-03-28T19:01:20.713Z,12.11
2019-03-28T19:03:52.465Z,12.03
2019-03-28T19:06:23.943Z,12.02
2019-03-28T19:08:55.869Z,12.04
2019-03-28T19:11:27.877Z,11.99
2019-03-28T19:13:59.484Z,12.04
2019-03-28T19:16:31.189Z,12.04
2019-03-28T19:19:02.878Z,11.95
2019-03-28T19:21:34.734Z,11.97
2019-03-28T19:24:06.187Z,11.90
2019-03-28T19:26:37.966Z,11.84
2019-03-28T19:29:09.613Z,11.86
2019-03-28T19:31:42.135Z,11.99
2019-03-28T19:34:13.904Z,11.86
2019-03-28T19:36:45.869Z,11.86
2019-03-28T19:39:26.878Z,11.98
2019-03-28T19:41:58.655Z,11.91
2019-03-28T19:44:30.637Z,11.92
2019-03-28T19:47:03.478Z,11.88
2019-03-28T19:49:36.008Z,11.84
2019-03-28T19:52:07.652Z,11.83
2019-03-28T19:54:39.641Z,11.82
2019-03-28T19:57:11.118Z,11.78
2019-03-28T19:59:46.337Z,11.84
2019-03-28T20:02:17.926Z,11.84
2019-03-28T20:04:50.151Z,11.83
2019-03-28T20:07:22.249Z,11.73
2019-03-28T20:09:57.332Z,11.77
2019-03-28T20:12:28.204Z,11.77
2019-03-28T20:15:00.256Z,11.85
2019-03-28T20:17:31.898Z,11.77
2019-03-28T20:20:04.180Z,11.74
2019-03-28T20:22:36.249Z,11.77
2019-03-28T20:25:07.901Z,11.77
2019-03-28T20:27:40.971Z,11.80
2019-03-28T20:30:12.795Z,11.76
2019-03-28T20:32:44.582Z,11.77
2019-03-28T20:35:16.096Z,11.72
2019-03-28T20:37:47.604Z,11.62
2019-03-28T20:40:19.241Z,11.68
2019-03-28T20:42:50.819Z,11.70
2019-03-28T20:45:23.690Z,11.70
2019-03-28T20:47:55.380Z,11.62
2019-03-28T20:50:27.643Z,11.54
2019-03-28T20:53:00.214Z,11.63
2019-03-28T20:55:31.865Z,11.61
2019-03-28T20:58:03.360Z,11.49
2019-03-28T21:00:41.129Z,11.57
2019-03-28T21:03:12.746Z,11.53
2019-03-28T21:05:45.185Z,11.52
2019-03-28T21:08:16.907Z,11.52
2019-03-28T21:10:48.650Z,11.65
2019-03-28T21:13:20.113Z,11.51
2019-03-28T21:15:51.674Z,11.54
2019-03-28T21:18:23.720Z,11.57
2019-03-28T21:20:55.220Z,11.46
2019-03-28T21:23:26.899Z,11.41
2019-03-28T21:25:58.341Z,11.41
2019-03-28T21:28:30.326Z,11.52
2019-03-28T21:31:02.634Z,11.53
2019-03-28T21:33:34.094Z,11.42
2019-03-28T21:36:05.571Z,11.46
2019-03-28T21:38:37.038Z,11.40
2019-03-28T21:41:08.596Z,11.37
2019-03-28T21:43:40.145Z,11.40
2019-03-28T21:46:11.531Z,11.43
2019-03-28T21:48:43.183Z,11.42
2019-03-28T21:51:15.241Z,11.39
2019-03-28T21:53:46.769Z,11.42
2019-03-28T21:56:18.288Z,11.56
2019-03-28T21:58:49.699Z,11.47
2019-03-28T22:01:21.363Z,11.47
2019-03-28T22:03:53.922Z,11.67
2019-03-28T22:06:25.654Z,11.72
2019-03-28T22:08:57.279Z,11.76
2019-03-28T22:11:29.078Z,11.75
2019-03-28T22:14:00.757Z,11.78
2019-03-28T22:16:32.480Z,11.90
2019-03-28T22:19:05.414Z,11.76
2019-03-28T22:21:36.933Z,11.66
2019-03-28T22:24:08.595Z,11.61
2019-03-28T22:26:40.050Z,11.55
2019-03-28T22:29:11.923Z,11.51
2019-03-28T22:31:43.920Z,11.53
2019-03-28T22:34:15.299Z,11.55
2019-03-28T22:36:57.118Z,11.46
2019-03-28T22:39:20.321Z,11.55
2019-03-28T22:41:51.697Z,11.48
2019-03-28T22:44:24.242Z,11.24
2019-03-28T22:46:56.538Z,11.38
2019-03-28T22:49:27.918Z,11.25
2019-03-28T22:51:59.693Z,11.28
2019-03-28T22:54:31.558Z,11.30
2019-03-28T22:57:04.055Z,11.43
2019-03-28T22:59:35.426Z,11.36
2019-03-28T23:02:07.026Z,11.38
2019-03-28T23:04:39.360Z,11.42
2019-03-28T23:07:11.531Z,11.20
2019-03-28T23:09:42.940Z,11.37
2019-03-28T23:12:15.433Z,11.33
2019-03-28T23:14:47.224Z,11.29
2019-03-28T23:17:18.631Z,11.36
2019-03-28T23:19:50.319Z,11.24
2019-03-28T23:22:21.830Z,11.16
2019-03-28T23:24:53.221Z,11.27
2019-03-28T23:27:25.389Z,11.20
2019-03-28T23:29:57.938Z,11.33
2019-03-28T23:32:29.601Z,11.36
2019-03-28T23:35:01.261Z,11.29
2019-03-28T23:37:33.170Z,11.32
2019-03-28T23:40:05.054Z,11.43
2019-03-28T23:42:36.811Z,11.30
2019-03-28T23:45:11.394Z,11.34
2019-03-28T23:47:42.944Z,11.36
2019-03-28T23:50:14.950Z,11.32
2019-03-28T23:52:46.619Z,11.28
2019-03-28T23:55:18.966Z,11.23
2019-03-28T23:57:50.809Z,11.29
